Bookmark and Share
Track history (hours):
 

British Progress

Last reported at 2014-Apr-07 14:24 UTC. Time now 2014-Apr-18 23:15 UTC.
Position N 26°12' E 055°35'.
Warning: this ship's position is 11 days out of date.

Length 334 m; beam 58 m; draft 22.5 m.

Type: Tanker. MMSI: 232048000.

NotesDate/timePositionNaut miles runAvg speedWind from/ knotsBaromVisibWave heightAir tempDewpointWater temp
2014-Apr-07 14:24N 26°12' E 055°35'1012.0
2014-Apr-07 13:33N 26°08' E 055°24'1411.5
2014-Apr-07 12:17N 26°07' E 055°08'5912.3
2014-Apr-07 07:31N 26°14' E 054°03'2811.9
2014-Apr-07 05:07N 26°23' E 053°33'712.5
2014-Apr-07 04:31N 26°27' E 053°26'3612.3
2014-Apr-07 01:33N 26°45' E 052°50'1212.3
2014-Apr-07 00:33N 26°51' E 052°38'1212.6
2014-Apr-06 23:34N 26°57' E 052°26'5213.0
2014-Apr-06 19:31N 27°10' E 051°29'1413.5
2014-Apr-06 18:27N 27°11' E 051°13'1213.4
2014-Apr-06 17:33N 27°12' E 050°60'1513.7
2014-Apr-06 16:27N 27°12' E 050°43'1313.6
2014-Apr-06 15:31N 27°12' E 050°29'1313.3
2014-Apr-06 14:32N 27°12' E 050°14'  
2014-Apr-03 13:08N 27°06' E 052°06'209 6.4
2014-Apr-02 04:17N 26°02' E 055°49'2 0.9
2014-Apr-02 02:33N 26°04' E 055°49'1313.2
2014-Apr-02 01:33N 26°17' E 055°52'1212.2
2014-Apr-02 00:33N 26°28' E 055°58'1414.0
2014-Apr-01 23:33N 26°32' E 056°12'  

Dump ship's entire track history

sailing weather and tide predictions

British Progress — MZDL7 — position and weather